Sagehen Creek Weather observations

Data are for observation ending at time listed.
 Day   Time    Ave.   Ave.  Ave.  Vector   Max.   Stn.    Total    Solar   Ave.  
  of    of     Air    Rel.  Wind   Wind    Wind   Baro.  Precip.   Rad.    Soil  
Year   Day     Temp.  Hum.  Speed  Dir.    Gust   Pres.                    Temp. 
2014   (PST)    F      %     mph   deg.    mph     mb.     in.     W/m2     F   
------------------------------------------------------------------------------
 244   16:40   80.9    20    1.3   242      4.8   835.5   12.72     341    999.0
 244   16:50   79.9    22    1.7   240      5.0   835.5   12.73     308    999.0
 244   17:00   78.4    24    2.0   236      4.0   835.6   12.72     206    999.0
 244   17:10   77.2    24    1.8   242      4.5   835.7   12.73     214    999.0
 244   17:20   76.9    26    0.9   214      2.1   835.6   12.73     171    999.0
 244   17:30   75.1    28    1.3   245      3.6   835.6   12.73      53    999.0
 244   17:40   73.4    31    0.9   210      2.1   835.6   12.73      21    999.0
 244   17:50   72.1    32    1.2   239      4.1   835.6   12.73      16    999.0
 244   18:00   70.9    34    0.6   251      2.0   835.6   12.73      14    999.0
 244   18:10   69.7    36    0.2   262      4.0   835.8   12.73      10    999.0
 244   18:20   67.8    40    0.0   224      0.2   835.7   12.73       7    999.0
 244   18:30   65.7    45    0.0   294      0.3   835.6   12.73       5    999.0
 244   18:40   64.0    48    0.1   250      0.8   835.9   12.73       2    999.0
 244   18:50   62.6    48    0.0     0      0.0   835.9   12.73       1    999.0
 244   19:00   61.6    49    0.2   257      0.7   836.0   12.73       0    999.0
 244   19:10   60.4    52    0.1   215      0.7   835.7   12.73       0    999.0
 244   19:20   59.1    53    0.0     0      0.0   835.7   12.73       0    999.0
 244   19:30   58.0    55    0.1   230      0.7   835.7   12.73       0    999.0
 244   19:40   57.2    56    0.3   254      1.2   836.2   12.73       0    999.0
 244   19:50   56.4    58    0.0   215      0.3   836.3   12.73       0    999.0
 244   20:00   55.5    58    0.1   265      0.6   836.5   12.73       0    999.0
 244   20:10   55.0    58    0.0     0      0.0   836.7   12.73       0    999.0
 244   20:20   54.2    60    0.0   229      0.1   836.8   12.73       0    999.0
 244   20:30   53.6    61    0.6   252      1.5   836.8   12.73       0    999.0
 244   20:40   53.0    62    0.3   237      0.9   836.5   12.73       0    999.0
 244   20:50   52.4    62    0.4   259      1.1   836.6   12.73       0    999.0
 244   21:00   52.0    63    0.4   243      0.9   836.7   12.73       0    999.0
 244   21:10   51.4    64    0.1   256      0.7   836.9   12.73       0    999.0
 244   21:20   50.8    64    0.3   254      0.9   836.6   12.73       0    999.0
 244   21:30   50.3    66    0.2   244      1.0   836.4   12.73       0    999.0
 244   21:40   49.7    67    0.4   240      1.4   836.5   12.73       0    999.0
 244   21:50   49.2    70    0.3   209      1.2   836.6   12.73       0    999.0
 244   22:00   48.9    67    0.6   258      0.9   836.6   12.73       0    999.0
 244   22:10   48.8    67    0.4   254      1.1   836.6   12.73       0    999.0
 244   22:20   32.0     0    0.1   245      0.2     0.0   12.73       0    999.0
 244   22:30   47.0    67    0.4   248      0.9    13.9   12.73       0    999.0
 244   22:40   47.4    71    0.6   251      1.3   836.3   12.73       0    999.0
 244   22:50   47.0    70    0.6   260      1.2   836.5   12.73       0    999.0
 244   23:00   46.6    71    0.7   260      1.1   836.7   12.73       0    999.0
 244   23:10   46.4    71    0.5   259      1.0   836.4   12.73       0    999.0
 244   23:20   46.0    72    0.6   257      1.3   836.4   12.73       0    999.0
 244   23:30   45.5    72    0.3   260      0.9   836.4   12.73       0    999.0
 244   23:40   45.2    72    0.8   267      1.3   836.3   12.73       0    999.0
 244   23:50   44.9    73    0.5   258      1.0   836.5   12.73       0    999.0
 245    0:00   44.4    74    0.8   262      1.3   836.8   12.73       0    999.0
 245    0:10   44.1    74    0.7   258      1.2   836.6   12.73       0    999.0
 245    0:20   43.9    74    0.8   257      1.1   836.5   12.73       0    999.0
 245    0:30   43.7    75    0.6   245      1.1   836.5   12.73       0    999.0
 245    0:40   43.3    75    0.8   261      1.6   836.2   12.73       0    999.0
 245    0:50   43.0    76    0.6   262      1.1   836.2   12.73       0    999.0
 245    1:00   42.7    76    0.5   262      1.2   836.2   12.73       0    999.0
 245    1:10   42.4    76    0.5   260      1.2   836.5   12.73       0    999.0
 245    1:20   42.1    76    0.7   263      1.2   836.5   12.73       0    999.0
 245    1:30   41.7    77    0.4   257      0.8   836.4   12.73       0    999.0
 245    1:40   41.4    78    0.7   261      1.0   836.3   12.73       0    999.0
 245    1:50   41.2    78    0.7   265      1.5   836.1   12.73       0    999.0
 245    2:00   41.0    78    0.7   259      1.3   836.0   12.73       0    999.0
 245    2:10   40.7    79    0.3   267      1.1   835.9   12.73       0    999.0
 245    2:20   40.5    79    1.0   261      1.5   836.2   12.73       0    999.0
 245    2:30   40.3    79    0.7   259      1.1   836.4   12.73       0    999.0
 245    2:40   40.1    79    0.8   260      1.5   836.1   12.73       0    999.0
 245    2:50   39.8    80    0.8   261      1.3   836.2   12.73       0    999.0
 245    3:00   39.6    80    0.6   262      1.3   836.3   12.73       0    999.0
 245    3:10   39.4    81    0.6   260      1.2   835.9   12.73       0    999.0
 245    3:20   39.3    81    0.7   264      1.3   835.9   12.73       0    999.0
 245    3:30   39.2    81    0.9   261      1.4   835.9   12.73       0    999.0
 245    3:40   38.9    82    0.6   258      1.2   836.0   12.73       0    999.0
 245    3:50   38.8    82    0.7   265      1.4   836.1   12.73       0    999.0
 245    4:00   38.6    83    0.3   262      1.2   836.1   12.73       0    999.0
 245    4:10   38.4    83    0.4   257      1.0   836.0   12.73       0    999.0
 245    4:20   38.1    84    0.7   265      1.5   836.0   12.73       0    999.0
 245    4:30   38.0    85    0.5   258      1.2   836.0   12.73       0    999.0
 245    4:40   37.7    85    0.3   287      1.3   836.3   12.73       0    999.0
 245    4:50   37.5    85    0.1   259      0.8   836.1   12.73       0    999.0
 245    5:00   37.2    86    0.6   264      1.8   835.9   12.73       0    999.0
 245    5:10   37.3    86    1.2   305      2.7   836.3   12.73       0    999.0
 245    5:20   37.2    86    0.6   265      1.6   836.4   12.73       0    999.0
 245    5:30   37.1    87    0.3   239      1.1   836.4   12.73       2    999.0
 245    5:40   37.0    87    0.4   251      0.9   836.1   12.73       4    999.0
 245    5:50   36.9    87    0.4   262      1.5   836.2   12.73       7    999.0
 245    6:00   36.9    88    0.2   271      1.0   836.4   12.73       9    999.0
 245    6:10   36.9    88    0.4   268      1.8   836.3   12.73      17    999.0
 245    6:20   37.7    87    0.4   248      1.6   836.2   12.73      95    999.0
 245    6:30   39.8    84    0.2   282      1.6   836.0   12.73     141    999.0
 245    6:40   41.5    80    0.4   281      1.5   836.0   12.74     172    999.0
 245    6:50   43.5    77    0.2   268      1.3   836.2   12.74     204    999.0
 245    7:00   45.2    75    0.3   220      1.6   836.5   12.73     237    999.0
 245    7:10   47.3    73    0.4   358      1.7   836.3   12.73     269    999.0
 245    7:20   50.1    71    0.2    58      1.4   836.4   12.73     301    999.0
 245    7:30   52.5    68    0.5   164      2.0   836.5   12.73     335    999.0
 245    7:40   54.2    67    0.1    76      1.0   836.2   12.73     367    999.0
 245    7:50   56.4    64    1.1    64      2.9   836.3   12.73     399    999.0
 245    8:00   58.9    61    1.0   352      4.2   836.4   12.73     431    999.0
 245    8:10   62.8    52    1.9    82      4.1   836.2   12.73     461    999.0
 245    8:20   67.0    38    2.4   108      6.8   836.2   12.73     493    999.0
 245    8:30   69.3    34    2.5   100      5.1   836.2   12.73     522    999.0
 245    8:40   70.5    32    2.5    94      5.5   836.2   12.73     550    999.0
 245    8:50   71.5    30    2.0   130      4.1   836.1   12.73     577    999.0
 245    9:00   73.0    29    1.6   112      4.5   835.9   12.72     604    999.0
 245    9:10   73.6    27    2.4   292      5.0   836.1   12.72     630    999.0
 245    9:20   74.1    27    1.8   276      4.8   836.1   12.72     655    999.0
 245    9:30   74.8    25    2.2   163      5.7   836.1   12.72     681    999.0
 245    9:40   74.7    23    2.8   234      6.7   836.3   12.72     706    999.0
 245    9:50   75.0    23    2.4   206      6.9   836.2   12.72     727    999.0
 245   10:00   76.2    23    2.3   212      4.9   836.2   12.72     748    999.0
 245   10:10   76.3    23    3.1   175      6.2   836.1   12.72     765    999.0
 245   10:20   76.7    24    2.8   284      6.6   836.0   12.72     780    999.0
 245   10:30   77.1    22    2.2   243      4.7   836.0   12.72     794    999.0
 245   10:40   77.8    22    2.1   245      5.6   836.0   12.72     811    999.0
 245   10:50   77.8    22    1.9   244      3.9   836.0   12.72     821    999.0
 245   11:00   78.4    21    1.9   277      5.3   835.9   12.71     805    999.0
 245   11:10   78.3    21    2.4   223      8.1   835.9   12.71     847    999.0
 245   11:20   78.4    22    2.8   250      5.5   835.9   12.71     850    999.0
 245   11:30   78.8    21    2.3   285      5.3   835.9   12.71     856    999.0
 245   11:40   78.9    21    2.3   254      5.9   836.0   12.71     864    999.0
 245   11:50   79.3    21    2.6   248      6.1   835.7   12.71     863    999.0
 245   12:00   79.1    21    2.9   219      6.9   835.5   12.71     864    999.0
 245   12:10   79.2    19    3.1   260      6.5   835.7   12.71     867    999.0
 245   12:20   79.4    19    3.0   291      5.9   835.6   12.71     866    999.0
 245   12:30   79.1    20    3.4   256      7.9   835.4   12.71     862    999.0
 245   12:40   79.1    19    2.8   205      5.4   835.6   12.71     860    999.0
 245   12:50   79.6    18    2.5   282      7.2   835.4   12.71     854    999.0
 245   13:00   79.5    18    3.4   280      7.0   835.2   12.71     850    999.0
 245   13:10   79.3    18    3.2   248      8.0   835.3   12.71     843    999.0
 245   13:20   79.1    18    3.8   250      9.7   835.5   12.71     835    999.0
 245   13:30   78.9    17    3.4   272      9.1   835.7   12.71     824    999.0
 245   13:40   79.4    17    2.8   244      6.1   835.5   12.71     810    999.0
 245   13:50   79.6    18    2.4   203      8.0   835.4   12.71     796    999.0
 245   14:00   79.2    16    3.9   212      8.6   835.4   12.71     783    999.0
 245   14:10   79.3    16    2.2   268      7.0   835.1   12.71     762    999.0
 245   14:20   80.2    16    3.3   297      7.1   835.1   12.71     744    999.0
 245   14:30   79.6    18    2.8   243      8.0   835.1   12.71     720    999.0
 245   14:40   79.2    19    3.3   229      8.3   835.0   12.71     697    999.0
 245   14:50   79.3    18    2.9   228      7.1   834.9   12.71     674    999.0
 245   15:00   79.1    18    3.0   286      8.5   834.9   12.71     647    999.0
 245   15:10   79.2    20    2.4   214      5.8   834.8   12.71     621    999.0
 245   15:20   79.5    18    2.0   261      6.5   834.7   12.71     596    999.0
 245   15:30   78.6    19    2.6   214      9.1   834.6   12.71     567    999.0
 245   15:40   78.0    19    3.4   269      9.1   834.6   12.71     538    999.0
 245   15:50   77.8    19    2.3   234      5.0   834.7   12.71     508    999.0
 245   16:00   77.9    20    2.4   257      6.6   834.8   12.71     477    999.0
 245   16:10   77.4    19    3.1   282      7.4   834.5   12.71     445    999.0
 245   16:20   76.9    20    2.7   259      6.8   834.4   12.72     413    999.0
 245   16:30   76.0    20    3.1   253      6.9   834.2   12.72     379    999.0

Return to Sagehen Creek graphs page.


Western Regional Climate Center,wrcc@dri.edu